createdAt,value
2023-04-20T00:01:33.159Z,51.77
2023-04-20T00:04:00.001Z,51.65
2023-04-20T00:06:29.028Z,51.49
2023-04-20T00:08:55.859Z,51.60
2023-04-20T00:11:22.423Z,51.63
2023-04-20T00:13:49.139Z,51.64
2023-04-20T00:16:16.026Z,51.69
2023-04-20T00:18:45.521Z,51.74
2023-04-20T00:21:12.833Z,51.66
2023-04-20T00:23:39.741Z,51.65
2023-04-20T00:26:06.936Z,51.64
2023-04-20T00:28:33.997Z,51.63
2023-04-20T00:31:00.752Z,51.64
2023-04-20T00:33:27.450Z,51.57
2023-04-20T00:35:55.837Z,51.42
2023-04-20T00:38:23.784Z,51.58
2023-04-20T00:40:53.490Z,51.55
2023-04-20T00:43:20.288Z,51.73
2023-04-20T00:45:47.153Z,51.92
2023-04-20T00:48:14.264Z,52.03
2023-04-20T00:50:43.456Z,52.22
2023-04-20T00:53:10.306Z,52.36
2023-04-20T00:55:37.346Z,52.53
2023-04-20T00:58:04.219Z,52.57
2023-04-20T01:00:33.427Z,52.75
2023-04-20T01:03:00.192Z,52.76
2023-04-20T01:05:27.205Z,52.93
2023-04-20T01:07:55.499Z,53.04
2023-04-20T01:10:22.418Z,53.16
2023-04-20T01:12:49.117Z,53.15
2023-04-20T01:15:16.078Z,53.34
2023-04-20T01:17:45.047Z,53.52
2023-04-20T01:20:12.017Z,53.62
2023-04-20T01:22:46.088Z,53.84
2023-04-20T01:25:14.336Z,53.99
2023-04-20T01:27:42.115Z,54.05
2023-04-20T01:30:09.160Z,54.17
2023-04-20T01:32:37.865Z,54.36
2023-04-20T01:35:05.383Z,54.59
2023-04-20T01:37:32.286Z,54.62
2023-04-20T01:40:03.530Z,54.58
2023-04-20T01:42:30.327Z,54.75
2023-04-20T01:44:57.992Z,54.78
2023-04-20T01:47:24.685Z,54.80
2023-04-20T01:49:51.431Z,54.88
2023-04-20T01:52:18.016Z,54.94
2023-04-20T01:54:44.773Z,55.09
2023-04-20T01:57:11.530Z,55.05
2023-04-20T01:59:39.037Z,55.08
2023-04-20T02:02:05.932Z,55.10
2023-04-20T02:04:34.334Z,55.19
2023-04-20T02:07:00.899Z,55.24
2023-04-20T02:09:27.575Z,55.53
2023-04-20T02:11:54.681Z,55.59
2023-04-20T02:14:21.426Z,55.54
2023-04-20T02:16:48.362Z,55.71
2023-04-20T02:19:15.273Z,55.56
2023-04-20T02:21:41.967Z,55.60
2023-04-20T02:24:08.702Z,55.61
2023-04-20T02:26:35.769Z,55.51
2023-04-20T02:29:02.297Z,55.63
2023-04-20T02:31:29.381Z,55.74
2023-04-20T02:33:55.998Z,55.69
2023-04-20T02:36:22.636Z,55.73
2023-04-20T02:38:49.225Z,55.82
2023-04-20T02:41:16.038Z,55.89
2023-04-20T02:43:43.317Z,55.82
2023-04-20T02:46:10.682Z,55.89
2023-04-20T02:48:37.614Z,55.77
2023-04-20T02:51:04.185Z,55.55
2023-04-20T02:53:40.384Z,55.59
2023-04-20T02:56:18.817Z,55.48
2023-04-20T02:58:51.551Z,55.19
2023-04-20T03:01:24.971Z,55.07
2023-04-20T03:03:58.655Z,55.12
2023-04-20T03:06:26.045Z,55.03
2023-04-20T03:08:55.795Z,55.04
2023-04-20T03:11:45.325Z,54.86
2023-04-20T03:14:14.752Z,54.66
2023-04-20T03:16:42.155Z,54.52
2023-04-20T03:19:09.839Z,54.37
2023-04-20T03:21:36.504Z,54.25
2023-04-20T03:24:03.771Z,54.10
2023-04-20T03:26:30.468Z,54.02
2023-04-20T03:29:10.965Z,54.03
2023-04-20T03:31:37.798Z,53.90
2023-04-20T03:34:04.985Z,53.79
2023-04-20T03:36:31.925Z,53.81
2023-04-20T03:38:59.092Z,53.73
2023-04-20T03:41:26.916Z,53.60
2023-04-20T03:43:55.434Z,53.61
2023-04-20T03:46:23.241Z,53.58
2023-04-20T03:48:50.468Z,53.61
2023-04-20T03:51:17.445Z,53.60
2023-04-20T03:53:44.374Z,53.67
2023-04-20T03:56:11.861Z,53.65
2023-04-20T03:58:38.601Z,53.51
2023-04-20T04:01:12.592Z,53.52
2023-04-20T04:03:42.299Z,53.57
2023-04-20T04:06:10.062Z,53.55
2023-04-20T04:08:36.767Z,53.47
2023-04-20T04:11:03.711Z,53.59
2023-04-20T04:13:33.782Z,53.40
2023-04-20T04:16:01.616Z,53.22
2023-04-20T04:18:31.833Z,53.14
2023-04-20T04:20:59.624Z,53.16
2023-04-20T04:23:29.455Z,53.08
2023-04-20T04:26:09.443Z,52.97
2023-04-20T04:28:36.959Z,52.86
2023-04-20T04:31:18.841Z,53.04
2023-04-20T04:33:45.829Z,53.28
2023-04-20T04:36:15.593Z,53.63
2023-04-20T04:38:44.024Z,53.95
2023-04-20T04:41:12.040Z,54.02
2023-04-20T04:43:40.344Z,54.28
2023-04-20T04:46:14.041Z,54.52
2023-04-20T04:48:41.680Z,54.45
2023-04-20T04:51:08.724Z,54.63
2023-04-20T04:53:35.480Z,55.54
2023-04-20T04:56:03.840Z,55.79
2023-04-20T04:58:30.754Z,56.70
2023-04-20T05:00:57.497Z,57.66
2023-04-20T05:03:24.579Z,58.28
2023-04-20T05:05:51.492Z,58.73
2023-04-20T05:08:18.400Z,59.52
2023-04-20T05:10:45.056Z,60.22
2023-04-20T05:13:11.655Z,60.69
2023-04-20T05:15:38.262Z,61.28
2023-04-20T05:18:06.950Z,62.02
2023-04-20T05:20:33.886Z,62.28
2023-04-20T05:23:00.428Z,63.04
2023-04-20T05:25:27.059Z,63.89
2023-04-20T05:27:53.674Z,64.52
2023-04-20T05:30:22.067Z,65.41
2023-04-20T05:32:52.017Z,65.97
2023-04-20T05:35:20.578Z,66.65
2023-04-20T05:37:47.255Z,67.40
2023-04-20T05:40:15.114Z,67.89
2023-04-20T05:42:42.368Z,68.39
2023-04-20T05:45:10.065Z,69.05
2023-04-20T05:47:36.849Z,69.85
2023-04-20T05:50:05.840Z,70.54
2023-04-20T05:52:32.843Z,71.52
2023-04-20T05:54:59.558Z,72.11
2023-04-20T05:57:26.495Z,72.92
2023-04-20T05:59:55.476Z,73.91
2023-04-20T06:02:22.641Z,74.14
2023-04-20T06:04:49.787Z,74.76
2023-04-20T06:07:17.165Z,74.95
2023-04-20T06:09:44.633Z,75.30
2023-04-20T06:12:11.918Z,75.64
2023-04-20T06:14:40.022Z,75.96
2023-04-20T06:17:08.246Z,76.16
2023-04-20T06:19:35.997Z,76.47
2023-04-20T06:22:12.865Z,76.79
2023-04-20T06:24:42.232Z,77.41
2023-04-20T06:27:09.332Z,78.17
2023-04-20T06:29:36.275Z,78.54
2023-04-20T06:32:03.975Z,79.07
2023-04-20T06:34:31.507Z,79.36
2023-04-20T06:37:01.129Z,79.78
2023-04-20T06:39:27.955Z,80.28
2023-04-20T06:41:54.691Z,80.77
2023-04-20T06:44:22.472Z,80.66
2023-04-20T06:46:50.154Z,81.14
2023-04-20T06:49:17.596Z,80.67
2023-04-20T06:51:48.763Z,80.35
2023-04-20T06:54:16.833Z,80.03
2023-04-20T06:56:46.189Z,79.53
2023-04-20T06:59:15.510Z,78.84
2023-04-20T07:01:43.520Z,77.93
2023-04-20T07:04:14.577Z,77.42
2023-04-20T07:06:56.862Z,76.70
2023-04-20T07:09:38.914Z,75.87
2023-04-20T07:12:06.176Z,75.58
2023-04-20T07:14:33.480Z,74.96
2023-04-20T07:17:00.432Z,74.42
2023-04-20T07:19:27.354Z,73.79
2023-04-20T07:21:55.096Z,73.68
2023-04-20T07:24:23.142Z,73.33
2023-04-20T07:26:50.805Z,73.27
2023-04-20T07:29:17.945Z,73.04
2023-04-20T07:31:45.206Z,72.68
2023-04-20T07:34:13.292Z,72.41
2023-04-20T07:36:41.879Z,72.07
2023-04-20T07:39:08.842Z,72.31
2023-04-20T07:41:50.060Z,72.28
2023-04-20T07:44:17.337Z,71.88
2023-04-20T07:46:45.096Z,71.82
2023-04-20T07:49:12.263Z,71.70
2023-04-20T07:51:42.438Z,71.09
2023-04-20T07:54:18.771Z,71.14
2023-04-20T07:56:48.626Z,71.10
2023-04-20T07:59:15.824Z,71.00
2023-04-20T08:01:46.017Z,70.58
2023-04-20T08:04:13.204Z,70.62
2023-04-20T08:06:43.379Z,70.47
2023-04-20T08:09:14.015Z,69.89
2023-04-20T08:11:41.015Z,69.79
2023-04-20T08:14:10.441Z,69.25
2023-04-20T08:16:40.076Z,69.40
2023-04-20T08:19:12.373Z,69.43
2023-04-20T08:21:43.022Z,69.58
2023-04-20T08:24:09.972Z,69.54
2023-04-20T08:26:36.801Z,69.94
2023-04-20T08:29:03.801Z,70.17
2023-04-20T08:31:32.369Z,70.52
2023-04-20T08:33:59.911Z,70.90
2023-04-20T08:36:27.728Z,71.35
2023-04-20T08:38:58.373Z,72.15
2023-04-20T08:41:25.678Z,73.13
2023-04-20T08:43:52.347Z,73.99
2023-04-20T08:46:22.368Z,75.14
2023-04-20T08:48:49.691Z,76.49
2023-04-20T08:51:17.568Z,77.71
2023-04-20T08:53:47.085Z,78.79
2023-04-20T08:56:16.672Z,79.48
2023-04-20T08:58:46.358Z,80.84
2023-04-20T09:01:34.344Z,81.68
2023-04-20T09:04:29.090Z,83.34
2023-04-20T09:06:58.285Z,84.26
2023-04-20T09:09:30.826Z,85.43
2023-04-20T09:12:05.047Z,86.06
2023-04-20T09:14:49.299Z,87.07
2023-04-20T09:17:47.846Z,87.90
2023-04-20T09:20:57.355Z,89.35
2023-04-20T09:23:25.868Z,89.72
2023-04-20T09:25:53.858Z,90.38
2023-04-20T09:28:21.528Z,90.21
2023-04-20T09:30:50.129Z,90.33
2023-04-20T09:33:21.055Z,90.29
2023-04-20T09:35:48.347Z,90.79
2023-04-20T09:38:15.815Z,91.41
2023-04-20T09:40:43.781Z,91.78
2023-04-20T09:43:17.851Z,91.88
2023-04-20T09:45:45.307Z,91.14
2023-04-20T09:48:18.251Z,90.38
2023-04-20T09:50:49.252Z,89.52
2023-04-20T09:53:19.954Z,88.70
2023-04-20T09:56:10.467Z,88.05
2023-04-20T09:58:43.927Z,87.17
2023-04-20T10:01:37.460Z,86.67
2023-04-20T10:04:09.293Z,85.65
2023-04-20T10:07:11.622Z,85.15
2023-04-20T10:09:38.708Z,84.19
2023-04-20T10:12:06.947Z,83.51
2023-04-20T10:14:36.449Z,82.93
2023-04-20T10:17:04.941Z,81.99
2023-04-20T10:19:58.713Z,81.03
2023-04-20T10:22:32.573Z,80.60
2023-04-20T10:25:00.711Z,80.22
2023-04-20T10:27:32.077Z,79.99
2023-04-20T10:30:09.742Z,79.65
2023-04-20T10:32:40.874Z,79.20
2023-04-20T10:35:21.216Z,78.63
2023-04-20T10:38:59.759Z,77.66
2023-04-20T10:42:17.450Z,77.97
2023-04-20T10:44:49.127Z,77.52
2023-04-20T10:47:17.433Z,77.40
2023-04-20T10:49:44.781Z,77.55
2023-04-20T10:52:13.820Z,77.29
2023-04-20T10:54:51.062Z,77.51
2023-04-20T10:57:20.090Z,77.87
2023-04-20T11:00:02.692Z,77.85
2023-04-20T11:02:45.131Z,77.90
2023-04-20T11:05:20.001Z,77.99
2023-04-20T11:08:00.667Z,77.93
2023-04-20T11:10:42.508Z,78.10
2023-04-20T11:13:24.770Z,78.23
2023-04-20T11:15:52.927Z,78.30
2023-04-20T11:18:43.532Z,78.60
2023-04-20T11:21:15.698Z,78.91
2023-04-20T11:23:46.722Z,79.02
2023-04-20T11:26:17.768Z,78.91
2023-04-20T11:28:55.594Z,78.84
2023-04-20T11:31:23.964Z,78.80
2023-04-20T11:33:55.592Z,78.60
2023-04-20T11:36:25.396Z,78.63
2023-04-20T11:38:55.420Z,78.41
2023-04-20T11:41:24.026Z,78.26
2023-04-20T11:43:50.793Z,77.53
2023-04-20T11:46:19.715Z,77.20
2023-04-20T11:49:14.437Z,76.77
2023-04-20T11:52:07.421Z,76.50
2023-04-20T11:58:03.803Z,75.80
2023-04-20T12:00:39.273Z,75.30
2023-04-20T12:03:07.491Z,74.53
2023-04-20T12:05:38.331Z,74.13
2023-04-20T12:08:21.166Z,71.95
2023-04-20T12:11:04.734Z,71.21
2023-04-20T12:13:41.511Z,70.36
2023-04-20T12:16:35.086Z,69.99
2023-04-20T12:19:03.199Z,69.52
2023-04-20T12:21:33.706Z,69.79
2023-04-20T12:24:07.392Z,69.90
2023-04-20T12:26:38.637Z,69.72
2023-04-20T12:29:07.421Z,69.60
2023-04-20T12:31:40.360Z,69.25
2023-04-20T12:34:07.443Z,68.61
2023-04-20T12:36:34.323Z,68.58
2023-04-20T12:39:03.029Z,68.62
2023-04-20T12:41:30.170Z,68.16
2023-04-20T12:43:58.484Z,67.76
2023-04-20T12:46:25.644Z,67.19
2023-04-20T12:48:53.202Z,66.91
2023-04-20T12:51:33.933Z,66.39
2023-04-20T12:54:28.191Z,66.04
2023-04-20T12:57:02.094Z,65.61
2023-04-20T12:59:29.631Z,65.44
2023-04-20T13:01:58.943Z,65.36
2023-04-20T13:04:28.990Z,65.41
2023-04-20T13:07:02.446Z,66.07
2023-04-20T13:09:29.968Z,66.49
2023-04-20T13:11:58.786Z,66.60
2023-04-20T13:14:29.069Z,66.91
2023-04-20T13:17:01.143Z,67.27
2023-04-20T13:19:30.419Z,67.06
2023-04-20T13:22:08.319Z,67.09
2023-04-20T13:24:35.427Z,67.02
2023-04-20T13:27:03.119Z,66.73
2023-04-20T13:29:32.822Z,66.09
2023-04-20T13:32:00.638Z,65.24
2023-04-20T13:37:33.935Z,61.61
2023-04-20T13:40:09.419Z,61.89
2023-04-20T13:42:36.686Z,60.90
2023-04-20T13:45:04.415Z,58.88
2023-04-20T13:47:31.402Z,57.82
2023-04-20T13:49:59.089Z,58.04
2023-04-20T13:52:26.113Z,58.14
2023-04-20T13:54:52.884Z,58.46
2023-04-20T13:57:19.732Z,58.76
2023-04-20T13:59:49.002Z,58.87
2023-04-20T14:02:19.126Z,58.62
2023-04-20T14:04:46.208Z,58.81
2023-04-20T14:07:13.265Z,59.17
2023-04-20T14:09:40.029Z,59.39
2023-04-20T14:12:08.111Z,59.72
2023-04-20T14:14:35.053Z,60.20
2023-04-20T14:17:01.774Z,60.60
2023-04-20T14:19:29.182Z,61.23
2023-04-20T14:21:56.277Z,60.49
2023-04-20T14:24:23.178Z,60.61
2023-04-20T14:27:00.199Z,60.84
2023-04-20T14:29:27.363Z,60.78
2023-04-20T14:31:55.387Z,60.31
2023-04-20T14:34:22.696Z,59.59
2023-04-20T14:36:50.176Z,58.76
2023-04-20T14:39:18.836Z,58.29
2023-04-20T14:41:50.391Z,57.99
2023-04-20T14:44:17.438Z,57.17
2023-04-20T14:46:44.465Z,56.95
2023-04-20T14:49:12.011Z,55.84
2023-04-20T14:51:42.443Z,55.71
2023-04-20T14:54:09.279Z,55.87
2023-04-20T14:56:36.505Z,55.74
2023-04-20T14:59:04.313Z,55.70
2023-04-20T15:01:31.434Z,55.98
2023-04-20T15:03:58.801Z,56.34
2023-04-20T15:06:27.700Z,56.29
2023-04-20T15:08:55.869Z,56.79
2023-04-20T15:11:22.767Z,56.52
2023-04-20T15:13:52.064Z,56.78
2023-04-20T15:16:18.928Z,57.03
2023-04-20T15:18:46.531Z,57.34
2023-04-20T15:21:13.513Z,57.62
2023-04-20T15:23:40.934Z,57.36
2023-04-20T15:26:08.526Z,57.31
2023-04-20T15:28:36.715Z,57.55
2023-04-20T15:31:06.998Z,57.46
2023-04-20T15:33:34.557Z,57.68
2023-04-20T15:36:01.510Z,57.52
2023-04-20T15:38:30.003Z,57.44
2023-04-20T15:41:04.581Z,57.34
2023-04-20T15:43:32.386Z,58.02
2023-04-20T15:46:01.496Z,57.59
2023-04-20T15:48:28.631Z,57.70
2023-04-20T15:50:56.822Z,57.51
2023-04-20T15:53:24.625Z,57.59
2023-04-20T15:55:52.813Z,57.42
2023-04-20T15:58:20.776Z,57.58
2023-04-20T16:00:49.024Z,57.89
2023-04-20T16:03:17.443Z,57.86
2023-04-20T16:05:46.427Z,57.44
2023-04-20T16:08:18.319Z,57.35
2023-04-20T16:10:47.483Z,57.14
2023-04-20T16:13:14.412Z,56.98
2023-04-20T16:15:41.300Z,57.70
2023-04-20T16:18:10.874Z,58.11
2023-04-20T16:20:40.688Z,57.80
2023-04-20T16:23:08.791Z,57.38
2023-04-20T16:25:41.590Z,57.32
2023-04-20T16:28:08.468Z,57.13
2023-04-20T16:30:38.567Z,57.28
2023-04-20T16:33:05.724Z,57.51
2023-04-20T16:35:34.600Z,57.42
2023-04-20T16:38:02.329Z,57.53
2023-04-20T16:40:29.441Z,57.73
2023-04-20T16:42:57.144Z,57.72
2023-04-20T16:45:23.939Z,57.73
2023-04-20T16:47:50.796Z,57.60
2023-04-20T16:50:19.845Z,57.72
2023-04-20T16:52:47.055Z,57.76
2023-04-20T16:55:13.782Z,57.96
2023-04-20T16:57:41.455Z,58.11
2023-04-20T17:00:09.872Z,58.16
2023-04-20T17:02:37.546Z,58.37
2023-04-20T17:05:05.172Z,58.49
2023-04-20T17:07:32.566Z,58.52
2023-04-20T17:09:59.345Z,58.53
2023-04-20T17:12:25.911Z,58.39
2023-04-20T17:14:53.864Z,58.66
2023-04-20T17:17:20.466Z,58.85
2023-04-20T17:19:47.077Z,58.72
2023-04-20T17:22:13.988Z,59.49
2023-04-20T17:24:40.840Z,60.35
2023-04-20T17:27:07.740Z,60.64
2023-04-20T17:29:37.653Z,60.68
2023-04-20T17:32:05.355Z,60.59
2023-04-20T17:34:32.396Z,60.48
2023-04-20T17:36:59.177Z,60.00
2023-04-20T17:39:26.051Z,60.09
2023-04-20T17:41:52.959Z,60.14
2023-04-20T17:44:19.925Z,60.48
2023-04-20T17:46:49.036Z,60.40
2023-04-20T17:49:15.794Z,59.15
2023-04-20T17:51:42.324Z,58.74
2023-04-20T17:54:10.606Z,59.29
2023-04-20T17:56:37.322Z,59.09
2023-04-20T17:59:04.789Z,59.09
2023-04-20T18:01:34.140Z,58.95
2023-04-20T18:04:01.934Z,58.54
2023-04-20T18:06:30.072Z,58.18
2023-04-20T18:08:57.667Z,57.92
2023-04-20T18:11:24.321Z,57.64
2023-04-20T18:13:51.371Z,57.88
2023-04-20T18:16:20.415Z,58.05
2023-04-20T18:18:48.114Z,58.35
2023-04-20T18:21:14.846Z,57.86
2023-04-20T18:23:41.715Z,58.05
2023-04-20T18:26:16.692Z,57.86
2023-04-20T18:28:44.229Z,57.78
2023-04-20T18:31:11.137Z,57.65
2023-04-20T18:33:37.865Z,57.61
2023-04-20T18:36:05.075Z,57.58
2023-04-20T18:38:32.493Z,57.57
2023-04-20T18:40:59.290Z,58.13
2023-04-20T18:43:26.192Z,58.50
2023-04-20T18:45:52.867Z,58.30
2023-04-20T18:48:19.823Z,58.37
2023-04-20T18:50:48.048Z,58.32
2023-04-20T18:53:15.393Z,58.61
2023-04-20T18:55:42.007Z,58.77
2023-04-20T18:58:08.654Z,59.06
2023-04-20T19:00:35.568Z,59.22
2023-04-20T19:03:02.526Z,59.27
2023-04-20T19:05:30.391Z,59.30
2023-04-20T19:07:57.171Z,59.37
2023-04-20T19:10:25.073Z,59.37
2023-04-20T19:12:51.823Z,59.75
2023-04-20T19:15:24.942Z,59.98
2023-04-20T19:17:53.695Z,60.26
2023-04-20T19:20:20.950Z,60.43
2023-04-20T19:22:48.236Z,60.70
2023-04-20T19:25:15.376Z,60.84
2023-04-20T19:27:42.415Z,60.95
2023-04-20T19:30:09.367Z,60.98
2023-04-20T19:32:36.473Z,60.92
2023-04-20T19:35:03.668Z,61.01
2023-04-20T19:37:31.430Z,61.27
2023-04-20T19:39:58.560Z,61.28
2023-04-20T19:42:25.740Z,61.56
2023-04-20T19:44:53.007Z,61.54
2023-04-20T19:47:20.491Z,61.78
2023-04-20T19:49:50.260Z,62.14
2023-04-20T19:52:17.369Z,62.27
2023-04-20T19:54:44.073Z,62.55
2023-04-20T19:57:12.276Z,62.94
2023-04-20T19:59:41.086Z,63.17
2023-04-20T20:02:08.033Z,63.56
2023-04-20T20:04:37.238Z,63.69
2023-04-20T20:07:04.495Z,64.14
2023-04-20T20:09:32.498Z,64.59
2023-04-20T20:12:00.495Z,64.83
2023-04-20T20:14:27.230Z,65.13
2023-04-20T20:16:55.919Z,65.41
2023-04-20T20:19:23.094Z,65.46
2023-04-20T20:21:50.240Z,65.54
2023-04-20T20:24:22.332Z,65.76
2023-04-20T20:26:49.111Z,66.15
2023-04-20T20:29:16.268Z,66.08
2023-04-20T20:31:48.769Z,66.36
2023-04-20T20:34:15.799Z,66.57
2023-04-20T20:36:44.421Z,66.54
2023-04-20T20:39:12.030Z,66.65
2023-04-20T20:41:42.185Z,66.92
2023-04-20T20:44:11.904Z,67.00
2023-04-20T20:46:41.601Z,67.22
2023-04-20T20:49:10.844Z,67.35
2023-04-20T20:51:37.622Z,67.72
2023-04-20T20:54:06.329Z,67.56
2023-04-20T20:56:33.082Z,67.70
2023-04-20T20:58:59.851Z,67.46
2023-04-20T21:01:26.811Z,67.76
2023-04-20T21:03:53.761Z,67.90
2023-04-20T21:06:21.651Z,67.97
2023-04-20T21:08:48.198Z,67.78
2023-04-20T21:11:14.951Z,67.50
2023-04-20T21:13:41.757Z,67.88
2023-04-20T21:16:08.432Z,67.92
2023-04-20T21:18:35.576Z,67.67
2023-04-20T21:21:02.368Z,67.81
2023-04-20T21:23:29.011Z,67.98
2023-04-20T21:25:55.694Z,67.64
2023-04-20T21:28:22.482Z,67.71
2023-04-20T21:30:48.974Z,67.87
2023-04-20T21:33:15.583Z,67.59
2023-04-20T21:35:46.826Z,67.29
2023-04-20T21:38:19.523Z,67.06
2023-04-20T21:40:46.093Z,67.00
2023-04-20T21:43:13.718Z,66.79
2023-04-20T21:45:40.290Z,67.00
2023-04-20T21:48:10.163Z,67.13
2023-04-20T21:50:37.012Z,67.15
2023-04-20T21:53:03.621Z,67.00
2023-04-20T21:55:30.230Z,66.70
2023-04-20T21:57:57.071Z,67.01
2023-04-20T22:00:24.451Z,67.06
2023-04-20T22:02:51.593Z,66.85
2023-04-20T22:05:18.486Z,66.57
2023-04-20T22:07:45.518Z,66.66
2023-04-20T22:10:12.116Z,66.84
2023-04-20T22:12:41.803Z,66.73
2023-04-20T22:15:11.390Z,66.92
2023-04-20T22:17:38.454Z,67.07
2023-04-20T22:20:08.746Z,66.71
2023-04-20T22:22:35.971Z,66.53
2023-04-20T22:25:04.005Z,66.09
2023-04-20T22:27:32.031Z,66.34
2023-04-20T22:29:58.739Z,66.55
2023-04-20T22:32:27.881Z,66.48
2023-04-20T22:34:57.498Z,66.67
2023-04-20T22:37:24.272Z,66.76
2023-04-20T22:39:50.947Z,66.59
2023-04-20T22:42:17.489Z,66.65
2023-04-20T22:44:45.075Z,66.67
2023-04-20T22:47:11.910Z,66.93
2023-04-20T22:49:38.531Z,66.90
2023-04-20T22:52:05.268Z,67.04
2023-04-20T22:54:32.174Z,66.97
2023-04-20T22:56:58.849Z,67.02
2023-04-20T22:59:25.571Z,67.19
2023-04-20T23:01:52.112Z,67.28
2023-04-20T23:04:19.150Z,67.22
2023-04-20T23:06:48.622Z,67.06
2023-04-20T23:09:19.771Z,67.04
2023-04-20T23:11:46.583Z,67.20
2023-04-20T23:14:14.173Z,67.14
2023-04-20T23:16:41.018Z,67.17
2023-04-20T23:19:07.733Z,67.21
2023-04-20T23:21:34.281Z,67.18
2023-04-20T23:24:00.924Z,67.18
2023-04-20T23:26:27.964Z,67.23
2023-04-20T23:28:54.595Z,67.19
2023-04-20T23:31:21.261Z,67.07
2023-04-20T23:33:48.252Z,67.09
2023-04-20T23:36:15.162Z,67.23
2023-04-20T23:38:42.002Z,67.34
2023-04-20T23:41:09.546Z,67.48
2023-04-20T23:43:37.888Z,67.39
2023-04-20T23:46:05.741Z,67.67
2023-04-20T23:48:32.942Z,67.64
2023-04-20T23:51:02.830Z,67.87
2023-04-20T23:53:29.690Z,67.85
2023-04-20T23:55:56.390Z,67.70
2023-04-20T23:58:26.748Z,67.66
